<?xml version="1.0" encoding="UTF-8" standalone="no" ?>
<gpx xmlns="http://www.topografix.com/GPX/1/1" xmlns:xsi="http://www.w3.org/2001/XMLSchema-instance" xsi:schemaLocation="http://www.topografix.com/GPX/1/1 http://www.topografix.com/GPX/1/1/gpx.xsd" version="1.1" creator="VisuGPX - https://www.visugpx.com">
  <metadata>
    <name>Base VRTT Gevaudan Lagogne</name>
  </metadata>
  <trk>
    <name><![CDATA[ESI0328 -  CIRCUIT DE ROCLES]]></name>
    <extensions>
      <line xmlns="http://www.topografix.com/GPX/gpx_style/0/2">
        <color>0011ff</color>
        <width>4</width>
      </line>
    </extensions>
    <trkseg>
      <trkpt lat="44.71391" lon="3.78213">
        <ele>1112</ele>
        <time>2020-10-16T09:19:25.000Z</time>
      </trkpt>
      <trkpt lat="44.71391" lon="3.78213">
        <ele>1112</ele>
        <time>2020-10-16T09:19:25.000Z</time>
      </trkpt>
      <trkpt lat="44.71391" lon="3.78216">
        <ele>1112</ele>
        <time>2020-10-16T09:19:25.000Z</time>
      </trkpt>
      <trkpt lat="44.71391" lon="3.78216">
        <ele>1112</ele>
        <time>2020-10-16T09:19:25.000Z</time>
      </trkpt>
      <trkpt lat="44.71392" lon="3.78215">
        <ele>1112</ele>
        <time>2020-10-16T09:19:25.001Z</time>
      </trkpt>
      <trkpt lat="44.71393" lon="3.78227">
        <ele>1112</ele>
        <time>2020-10-16T09:19:25.003Z</time>
      </trkpt>
      <trkpt lat="44.71392" lon="3.78233">
        <ele>1112</ele>
        <time>2020-10-16T09:19:25.006Z</time>
      </trkpt>
      <trkpt lat="44.71406" lon="3.78244">
        <ele>1112</ele>
        <time>2020-10-16T09:19:25.012Z</time>
      </trkpt>
      <trkpt lat="44.71416" lon="3.78253">
        <ele>1112</ele>
        <time>2020-10-16T09:19:25.021Z</time>
      </trkpt>
      <trkpt lat="44.71431" lon="3.78274">
        <ele>1111.8955078125</ele>
        <time>2020-10-16T09:19:25.034Z</time>
      </trkpt>
      <trkpt lat="44.71437" lon="3.78262">
        <ele>1112</ele>
        <time>2020-10-16T09:19:25.049Z</time>
      </trkpt>
      <trkpt lat="44.71445" lon="3.78301">
        <ele>1110.5776367188</ele>
        <time>2020-10-16T09:19:25.070Z</time>
      </trkpt>
      <trkpt lat="44.71451" lon="3.78318">
        <ele>1109.7878417969</ele>
        <time>2020-10-16T09:19:25.093Z</time>
      </trkpt>
      <trkpt lat="44.71454" lon="3.78321">
        <ele>1109.60546875</ele>
        <time>2020-10-16T09:19:25.117Z</time>
      </trkpt>
      <trkpt lat="44.71457" lon="3.78323">
        <ele>1109.1942138672</ele>
        <time>2020-10-16T09:19:25.142Z</time>
      </trkpt>
      <trkpt lat="44.7146" lon="3.78323">
        <ele>1108.8275146484</ele>
        <time>2020-10-16T09:19:25.167Z</time>
      </trkpt>
      <trkpt lat="44.71497" lon="3.78317">
        <ele>1105.14453125</ele>
        <time>2020-10-16T09:19:25.200Z</time>
      </trkpt>
      <trkpt lat="44.71505" lon="3.78315">
        <ele>1104.5197753906</ele>
        <time>2020-10-16T09:19:25.235Z</time>
      </trkpt>
      <trkpt lat="44.71516" lon="3.78309">
        <ele>1103.9971923828</ele>
        <time>2020-10-16T09:19:25.272Z</time>
      </trkpt>
      <trkpt lat="44.71526" lon="3.78303">
        <ele>1103.6148681641</ele>
        <time>2020-10-16T09:19:25.311Z</time>
      </trkpt>
      <trkpt lat="44.71535" lon="3.78301">
        <ele>1103.0721435547</ele>
        <time>2020-10-16T09:19:25.352Z</time>
      </trkpt>
      <trkpt lat="44.71545" lon="3.78302">
        <ele>1102.1632080078</ele>
        <time>2020-10-16T09:19:25.395Z</time>
      </trkpt>
      <trkpt lat="44.71555" lon="3.78305">
        <ele>1101.0469970703</ele>
        <time>2020-10-16T09:19:25.440Z</time>
      </trkpt>
      <trkpt lat="44.7156" lon="3.78306">
        <ele>1100.5455322266</ele>
        <time>2020-10-16T09:19:25.486Z</time>
      </trkpt>
      <trkpt lat="44.71567" lon="3.78304">
        <ele>1100.1795654297</ele>
        <time>2020-10-16T09:19:25.533Z</time>
      </trkpt>
      <trkpt lat="44.71572" lon="3.78298">
        <ele>1100.3004150391</ele>
        <time>2020-10-16T09:19:25.582Z</time>
      </trkpt>
      <trkpt lat="44.71583" lon="3.7828">
        <ele>1101.4351806641</ele>
        <time>2020-10-16T09:19:25.634Z</time>
      </trkpt>
      <trkpt lat="44.71589" lon="3.78263">
        <ele>1102.4719238281</ele>
        <time>2020-10-16T09:19:25.689Z</time>
      </trkpt>
      <trkpt lat="44.71616" lon="3.78254">
        <ele>1101.7203369141</ele>
        <time>2020-10-16T09:19:25.749Z</time>
      </trkpt>
      <trkpt lat="44.71657" lon="3.78244">
        <ele>1100.1434326172</ele>
        <time>2020-10-16T09:19:25.818Z</time>
      </trkpt>
      <trkpt lat="44.71695" lon="3.78234">
        <ele>1098.6993408203</ele>
        <time>2020-10-16T09:19:25.894Z</time>
      </trkpt>
      <trkpt lat="44.71728" lon="3.78226">
        <ele>1097.6031494141</ele>
        <time>2020-10-16T09:19:25.977Z</time>
      </trkpt>
      <trkpt lat="44.71744" lon="3.78225">
        <ele>1097.0087890625</ele>
        <time>2020-10-16T09:19:26.063Z</time>
      </trkpt>
      <trkpt lat="44.71761" lon="3.78225">
        <ele>1096.4155273438</ele>
        <time>2020-10-16T09:19:26.153Z</time>
      </trkpt>
      <trkpt lat="44.71776" lon="3.78226">
        <ele>1095.7296142578</ele>
        <time>2020-10-16T09:19:26.246Z</time>
      </trkpt>
      <trkpt lat="44.71782" lon="3.7824">
        <ele>1094.2199707031</ele>
        <time>2020-10-16T09:19:26.341Z</time>
      </trkpt>
      <trkpt lat="44.71803" lon="3.78274">
        <ele>1091.7940673828</ele>
        <time>2020-10-16T09:19:26.442Z</time>
      </trkpt>
      <trkpt lat="44.71812" lon="3.78293">
        <ele>1090.9584960938</ele>
        <time>2020-10-16T09:19:26.547Z</time>
      </trkpt>
      <trkpt lat="44.71818" lon="3.78307">
        <ele>1090.3099365234</ele>
        <time>2020-10-16T09:19:26.654Z</time>
      </trkpt>
      <trkpt lat="44.71825" lon="3.78317">
        <ele>1090.0129394531</ele>
        <time>2020-10-16T09:19:26.763Z</time>
      </trkpt>
      <trkpt lat="44.71837" lon="3.78329">
        <ele>1089.7923583984</ele>
        <time>2020-10-16T09:19:26.875Z</time>
      </trkpt>
      <trkpt lat="44.7186" lon="3.78356">
        <ele>1089.2322998047</ele>
        <time>2020-10-16T09:19:26.993Z</time>
      </trkpt>
      <trkpt lat="44.71868" lon="3.78371">
        <ele>1088.5462646484</ele>
        <time>2020-10-16T09:19:27.114Z</time>
      </trkpt>
      <trkpt lat="44.71873" lon="3.78384">
        <ele>1087.6309814453</ele>
        <time>2020-10-16T09:19:27.237Z</time>
      </trkpt>
      <trkpt lat="44.71877" lon="3.78401">
        <ele>1086.3507080078</ele>
        <time>2020-10-16T09:19:27.362Z</time>
      </trkpt>
      <trkpt lat="44.71879" lon="3.78425">
        <ele>1084.3970947266</ele>
        <time>2020-10-16T09:19:27.491Z</time>
      </trkpt>
      <trkpt lat="44.71882" lon="3.7844">
        <ele>1083.2863769531</ele>
        <time>2020-10-16T09:19:27.622Z</time>
      </trkpt>
      <trkpt lat="44.71888" lon="3.78452">
        <ele>1082.763671875</ele>
        <time>2020-10-16T09:19:27.755Z</time>
      </trkpt>
      <trkpt lat="44.71893" lon="3.78461">
        <ele>1082.4594726562</ele>
        <time>2020-10-16T09:19:27.890Z</time>
      </trkpt>
      <trkpt lat="44.71922" lon="3.78487">
        <ele>1081.9504394531</ele>
        <time>2020-10-16T09:19:28.032Z</time>
      </trkpt>
      <trkpt lat="44.71948" lon="3.78506">
        <ele>1081.7442626953</ele>
        <time>2020-10-16T09:19:28.179Z</time>
      </trkpt>
      <trkpt lat="44.71966" lon="3.78517">
        <ele>1081.5355224609</ele>
        <time>2020-10-16T09:19:28.330Z</time>
      </trkpt>
      <trkpt lat="44.71978" lon="3.78528">
        <ele>1081.2557373047</ele>
        <time>2020-10-16T09:19:28.484Z</time>
      </trkpt>
      <trkpt lat="44.71996" lon="3.78549">
        <ele>1080.7041015625</ele>
        <time>2020-10-16T09:19:28.643Z</time>
      </trkpt>
      <trkpt lat="44.72014" lon="3.78569">
        <ele>1080.1590576172</ele>
        <time>2020-10-16T09:19:28.807Z</time>
      </trkpt>
      <trkpt lat="44.72034" lon="3.78586">
        <ele>1079.8096923828</ele>
        <time>2020-10-16T09:19:28.975Z</time>
      </trkpt>
      <trkpt lat="44.72043" lon="3.78597">
        <ele>1079.318359375</ele>
        <time>2020-10-16T09:19:29.145Z</time>
      </trkpt>
      <trkpt lat="44.7205" lon="3.7861">
        <ele>1078.5926513672</ele>
        <time>2020-10-16T09:19:29.318Z</time>
      </trkpt>
      <trkpt lat="44.72053" lon="3.78623">
        <ele>1077.9443359375</ele>
        <time>2020-10-16T09:19:29.493Z</time>
      </trkpt>
      <trkpt lat="44.72055" lon="3.78643">
        <ele>1076.9490966797</ele>
        <time>2020-10-16T09:19:29.671Z</time>
      </trkpt>
      <trkpt lat="44.72057" lon="3.78703">
        <ele>1074.5932617188</ele>
        <time>2020-10-16T09:19:29.857Z</time>
      </trkpt>
      <trkpt lat="44.72051" lon="3.78709">
        <ele>1074.3577880859</ele>
        <time>2020-10-16T09:19:30.045Z</time>
      </trkpt>
      <trkpt lat="44.72039" lon="3.78723">
        <ele>1073.3909912109</ele>
        <time>2020-10-16T09:19:30.236Z</time>
      </trkpt>
      <trkpt lat="44.72033" lon="3.7873">
        <ele>1073.1025390625</ele>
        <time>2020-10-16T09:19:30.428Z</time>
      </trkpt>
      <trkpt lat="44.7203" lon="3.78741">
        <ele>1072.6337890625</ele>
        <time>2020-10-16T09:19:30.622Z</time>
      </trkpt>
      <trkpt lat="44.72036" lon="3.7876">
        <ele>1071.5645751953</ele>
        <time>2020-10-16T09:19:30.819Z</time>
      </trkpt>
      <trkpt lat="44.72043" lon="3.7878">
        <ele>1071.2465820312</ele>
        <time>2020-10-16T09:19:31.019Z</time>
      </trkpt>
      <trkpt lat="44.72043" lon="3.78795">
        <ele>1071.0952148438</ele>
        <time>2020-10-16T09:19:31.221Z</time>
      </trkpt>
      <trkpt lat="44.72034" lon="3.78826">
        <ele>1070.3175048828</ele>
        <time>2020-10-16T09:19:31.428Z</time>
      </trkpt>
      <trkpt lat="44.72015" lon="3.78909">
        <ele>1068.6986083984</ele>
        <time>2020-10-16T09:19:31.648Z</time>
      </trkpt>
      <trkpt lat="44.7201" lon="3.78946">
        <ele>1068.6328125</ele>
        <time>2020-10-16T09:19:31.873Z</time>
      </trkpt>
      <trkpt lat="44.72" lon="3.78988">
        <ele>1069.4731445312</ele>
        <time>2020-10-16T09:19:32.104Z</time>
      </trkpt>
      <trkpt lat="44.7199" lon="3.79062">
        <ele>1069.5980224609</ele>
        <time>2020-10-16T09:19:32.346Z</time>
      </trkpt>
      <trkpt lat="44.71984" lon="3.79119">
        <ele>1069.9801025391</ele>
        <time>2020-10-16T09:19:32.596Z</time>
      </trkpt>
      <trkpt lat="44.71979" lon="3.79153">
        <ele>1070.3254394531</ele>
        <time>2020-10-16T09:19:32.851Z</time>
      </trkpt>
      <trkpt lat="44.71973" lon="3.79184">
        <ele>1071.3250732422</ele>
        <time>2020-10-16T09:19:33.111Z</time>
      </trkpt>
      <trkpt lat="44.71966" lon="3.79213">
        <ele>1070.8499755859</ele>
        <time>2020-10-16T09:19:33.375Z</time>
      </trkpt>
      <trkpt lat="44.7196" lon="3.79229">
        <ele>1070.9229736328</ele>
        <time>2020-10-16T09:19:33.642Z</time>
      </trkpt>
      <trkpt lat="44.71956" lon="3.79241">
        <ele>1070.9752197266</ele>
        <time>2020-10-16T09:19:33.911Z</time>
      </trkpt>
      <trkpt lat="44.71944" lon="3.79261">
        <ele>1070.3070068359</ele>
        <time>2020-10-16T09:19:34.183Z</time>
      </trkpt>
      <trkpt lat="44.71934" lon="3.79282">
        <ele>1070.2836914062</ele>
        <time>2020-10-16T09:19:34.459Z</time>
      </trkpt>
      <trkpt lat="44.71924" lon="3.79308">
        <ele>1069.9381103516</ele>
        <time>2020-10-16T09:19:34.739Z</time>
      </trkpt>
      <trkpt lat="44.7192" lon="3.79335">
        <ele>1070.1105957031</ele>
        <time>2020-10-16T09:19:35.023Z</time>
      </trkpt>
      <trkpt lat="44.71913" lon="3.7939">
        <ele>1068.3806152344</ele>
        <time>2020-10-16T09:19:35.315Z</time>
      </trkpt>
      <trkpt lat="44.71909" lon="3.79428">
        <ele>1068.1285400391</ele>
        <time>2020-10-16T09:19:35.612Z</time>
      </trkpt>
      <trkpt lat="44.71911" lon="3.79454">
        <ele>1067.859375</ele>
        <time>2020-10-16T09:19:35.913Z</time>
      </trkpt>
      <trkpt lat="44.71912" lon="3.79495">
        <ele>1067.3365478516</ele>
        <time>2020-10-16T09:19:36.220Z</time>
      </trkpt>
      <trkpt lat="44.71906" lon="3.79544">
        <ele>1066.7296142578</ele>
        <time>2020-10-16T09:19:36.534Z</time>
      </trkpt>
      <trkpt lat="44.71901" lon="3.79586">
        <ele>1066.4169921875</ele>
        <time>2020-10-16T09:19:36.854Z</time>
      </trkpt>
      <trkpt lat="44.71894" lon="3.79618">
        <ele>1065.9588623047</ele>
        <time>2020-10-16T09:19:37.179Z</time>
      </trkpt>
      <trkpt lat="44.71891" lon="3.79651">
        <ele>1064.2557373047</ele>
        <time>2020-10-16T09:19:37.509Z</time>
      </trkpt>
      <trkpt lat="44.71887" lon="3.79692">
        <ele>1062.1409912109</ele>
        <time>2020-10-16T09:19:37.844Z</time>
      </trkpt>
      <trkpt lat="44.71886" lon="3.79717">
        <ele>1061.0822753906</ele>
        <time>2020-10-16T09:19:38.183Z</time>
      </trkpt>
      <trkpt lat="44.71886" lon="3.7977">
        <ele>1057.9149169922</ele>
        <time>2020-10-16T09:19:38.530Z</time>
      </trkpt>
      <trkpt lat="44.71884" lon="3.79798">
        <ele>1057.0637207031</ele>
        <time>2020-10-16T09:19:38.881Z</time>
      </trkpt>
      <trkpt lat="44.71881" lon="3.79829">
        <ele>1055.5089111328</ele>
        <time>2020-10-16T09:19:39.236Z</time>
      </trkpt>
      <trkpt lat="44.71879" lon="3.79859">
        <ele>1054.1195068359</ele>
        <time>2020-10-16T09:19:39.595Z</time>
      </trkpt>
      <trkpt lat="44.71879" lon="3.79888">
        <ele>1053.4020996094</ele>
        <time>2020-10-16T09:19:39.959Z</time>
      </trkpt>
      <trkpt lat="44.71881" lon="3.79913">
        <ele>1052.8601074219</ele>
        <time>2020-10-16T09:19:40.326Z</time>
      </trkpt>
      <trkpt lat="44.71888" lon="3.79939">
        <ele>1052.4216308594</ele>
        <time>2020-10-16T09:19:40.697Z</time>
      </trkpt>
      <trkpt lat="44.71895" lon="3.79959">
        <ele>1052.5981445312</ele>
        <time>2020-10-16T09:19:41.071Z</time>
      </trkpt>
      <trkpt lat="44.71899" lon="3.79987">
        <ele>1052.9187011719</ele>
        <time>2020-10-16T09:19:41.449Z</time>
      </trkpt>
      <trkpt lat="44.71903" lon="3.80009">
        <ele>1053.2395019531</ele>
        <time>2020-10-16T09:19:41.831Z</time>
      </trkpt>
      <trkpt lat="44.71909" lon="3.80038">
        <ele>1053.4680175781</ele>
        <time>2020-10-16T09:19:42.217Z</time>
      </trkpt>
      <trkpt lat="44.71914" lon="3.80064">
        <ele>1053.5229492188</ele>
        <time>2020-10-16T09:19:42.607Z</time>
      </trkpt>
      <trkpt lat="44.7192" lon="3.80094">
        <ele>1053.8670654297</ele>
        <time>2020-10-16T09:19:43.001Z</time>
      </trkpt>
      <trkpt lat="44.71924" lon="3.80114">
        <ele>1053.7952880859</ele>
        <time>2020-10-16T09:19:43.398Z</time>
      </trkpt>
      <trkpt lat="44.71929" lon="3.80126">
        <ele>1053.4891357422</ele>
        <time>2020-10-16T09:19:43.797Z</time>
      </trkpt>
      <trkpt lat="44.71932" lon="3.80141">
        <ele>1053.1392822266</ele>
        <time>2020-10-16T09:19:44.198Z</time>
      </trkpt>
      <trkpt lat="44.71931" lon="3.80155">
        <ele>1052.8070068359</ele>
        <time>2020-10-16T09:19:44.601Z</time>
      </trkpt>
      <trkpt lat="44.71926" lon="3.80175">
        <ele>1052.4975585938</ele>
        <time>2020-10-16T09:19:45.007Z</time>
      </trkpt>
      <trkpt lat="44.71922" lon="3.80196">
        <ele>1052.2908935547</ele>
        <time>2020-10-16T09:19:45.416Z</time>
      </trkpt>
      <trkpt lat="44.71919" lon="3.80215">
        <ele>1052.0933837891</ele>
        <time>2020-10-16T09:19:45.828Z</time>
      </trkpt>
      <trkpt lat="44.71916" lon="3.80236">
        <ele>1051.8065185547</ele>
        <time>2020-10-16T09:19:46.243Z</time>
      </trkpt>
      <trkpt lat="44.71909" lon="3.8026">
        <ele>1049.7170410156</ele>
        <time>2020-10-16T09:19:46.662Z</time>
      </trkpt>
      <trkpt lat="44.71901" lon="3.80294">
        <ele>1047.0979003906</ele>
        <time>2020-10-16T09:19:47.086Z</time>
      </trkpt>
      <trkpt lat="44.71899" lon="3.80326">
        <ele>1043.595703125</ele>
        <time>2020-10-16T09:19:47.515Z</time>
      </trkpt>
      <trkpt lat="44.71894" lon="3.80369">
        <ele>1038.0952148438</ele>
        <time>2020-10-16T09:19:47.950Z</time>
      </trkpt>
      <trkpt lat="44.71888" lon="3.80422">
        <ele>1032.2037353516</ele>
        <time>2020-10-16T09:19:48.393Z</time>
      </trkpt>
      <trkpt lat="44.71886" lon="3.80452">
        <ele>1029.0754394531</ele>
        <time>2020-10-16T09:19:48.840Z</time>
      </trkpt>
      <trkpt lat="44.71892" lon="3.80479">
        <ele>1028.5148925781</ele>
        <time>2020-10-16T09:19:49.291Z</time>
      </trkpt>
      <trkpt lat="44.71909" lon="3.80583">
        <ele>1025.6220703125</ele>
        <time>2020-10-16T09:19:49.757Z</time>
      </trkpt>
      <trkpt lat="44.71911" lon="3.80587">
        <ele>1025.4730224609</ele>
        <time>2020-10-16T09:19:50.224Z</time>
      </trkpt>
      <trkpt lat="44.71909" lon="3.80599">
        <ele>1025.2122802734</ele>
        <time>2020-10-16T09:19:50.692Z</time>
      </trkpt>
      <trkpt lat="44.71901" lon="3.80605">
        <ele>1025.2683105469</ele>
        <time>2020-10-16T09:19:51.162Z</time>
      </trkpt>
      <trkpt lat="44.71889" lon="3.80605">
        <ele>1025.5523681641</ele>
        <time>2020-10-16T09:19:51.635Z</time>
      </trkpt>
      <trkpt lat="44.7187" lon="3.80603">
        <ele>1026.0251464844</ele>
        <time>2020-10-16T09:19:52.112Z</time>
      </trkpt>
      <trkpt lat="44.71846" lon="3.80604">
        <ele>1025.1040039062</ele>
        <time>2020-10-16T09:19:52.593Z</time>
      </trkpt>
      <trkpt lat="44.71836" lon="3.80609">
        <ele>1024.7250976562</ele>
        <time>2020-10-16T09:19:53.076Z</time>
      </trkpt>
      <trkpt lat="44.7182" lon="3.80616">
        <ele>1024.0548095703</ele>
        <time>2020-10-16T09:19:53.563Z</time>
      </trkpt>
      <trkpt lat="44.71785" lon="3.80624">
        <ele>1022.8000488281</ele>
        <time>2020-10-16T09:19:54.057Z</time>
      </trkpt>
      <trkpt lat="44.71768" lon="3.80621">
        <ele>1023.0391235352</ele>
        <time>2020-10-16T09:19:54.554Z</time>
      </trkpt>
      <trkpt lat="44.71736" lon="3.80608">
        <ele>1023.5700683594</ele>
        <time>2020-10-16T09:19:55.058Z</time>
      </trkpt>
      <trkpt lat="44.71699" lon="3.80591">
        <ele>1023.4197387695</ele>
        <time>2020-10-16T09:19:55.570Z</time>
      </trkpt>
      <trkpt lat="44.71675" lon="3.80578">
        <ele>1023.3590087891</ele>
        <time>2020-10-16T09:19:56.087Z</time>
      </trkpt>
      <trkpt lat="44.71664" lon="3.8057">
        <ele>1023.2044067383</ele>
        <time>2020-10-16T09:19:56.606Z</time>
      </trkpt>
      <trkpt lat="44.71653" lon="3.80557">
        <ele>1022.8778686523</ele>
        <time>2020-10-16T09:19:57.128Z</time>
      </trkpt>
      <trkpt lat="44.71643" lon="3.80549">
        <ele>1022.7188720703</ele>
        <time>2020-10-16T09:19:57.652Z</time>
      </trkpt>
      <trkpt lat="44.71629" lon="3.80542">
        <ele>1022.6272583008</ele>
        <time>2020-10-16T09:19:58.180Z</time>
      </trkpt>
      <trkpt lat="44.71614" lon="3.80536">
        <ele>1021.8720092773</ele>
        <time>2020-10-16T09:19:58.711Z</time>
      </trkpt>
      <trkpt lat="44.71611" lon="3.80536">
        <ele>1021.5092773438</ele>
        <time>2020-10-16T09:19:59.242Z</time>
      </trkpt>
      <trkpt lat="44.71602" lon="3.80534">
        <ele>1020.4567871094</ele>
        <time>2020-10-16T09:19:59.775Z</time>
      </trkpt>
      <trkpt lat="44.71592" lon="3.80534">
        <ele>1019.3413696289</ele>
        <time>2020-10-16T09:20:00.310Z</time>
      </trkpt>
      <trkpt lat="44.71576" lon="3.80534">
        <ele>1017.6547241211</ele>
        <time>2020-10-16T09:20:00.848Z</time>
      </trkpt>
      <trkpt lat="44.71535" lon="3.80536">
        <ele>1013.1483154297</ele>
        <time>2020-10-16T09:20:01.394Z</time>
      </trkpt>
      <trkpt lat="44.71508" lon="3.8054">
        <ele>1010.651184082</ele>
        <time>2020-10-16T09:20:01.946Z</time>
      </trkpt>
      <trkpt lat="44.71492" lon="3.80539">
        <ele>1009.1130371094</ele>
        <time>2020-10-16T09:20:02.501Z</time>
      </trkpt>
      <trkpt lat="44.71465" lon="3.80531">
        <ele>1006.2907104492</ele>
        <time>2020-10-16T09:20:03.062Z</time>
      </trkpt>
      <trkpt lat="44.71442" lon="3.80522">
        <ele>1004.7241210938</ele>
        <time>2020-10-16T09:20:03.627Z</time>
      </trkpt>
      <trkpt lat="44.71436" lon="3.80518">
        <ele>1004.6276245117</ele>
        <time>2020-10-16T09:20:04.194Z</time>
      </trkpt>
      <trkpt lat="44.7143" lon="3.80511">
        <ele>1004.5635986328</ele>
        <time>2020-10-16T09:20:04.762Z</time>
      </trkpt>
      <trkpt lat="44.71416" lon="3.80493">
        <ele>1004.451171875</ele>
        <time>2020-10-16T09:20:05.334Z</time>
      </trkpt>
      <trkpt lat="44.71401" lon="3.80483">
        <ele>1004.2113647461</ele>
        <time>2020-10-16T09:20:05.909Z</time>
      </trkpt>
      <trkpt lat="44.71403" lon="3.80477">
        <ele>1004.310546875</ele>
        <time>2020-10-16T09:20:06.485Z</time>
      </trkpt>
      <trkpt lat="44.71403" lon="3.80471">
        <ele>1004.3972167969</ele>
        <time>2020-10-16T09:20:07.062Z</time>
      </trkpt>
      <trkpt lat="44.71398" lon="3.8046">
        <ele>1004.4224243164</ele>
        <time>2020-10-16T09:20:07.641Z</time>
      </trkpt>
      <trkpt lat="44.71392" lon="3.80451">
        <ele>1004.3695068359</ele>
        <time>2020-10-16T09:20:08.222Z</time>
      </trkpt>
      <trkpt lat="44.71386" lon="3.80446">
        <ele>1004.2864379883</ele>
        <time>2020-10-16T09:20:08.804Z</time>
      </trkpt>
      <trkpt lat="44.71383" lon="3.80445">
        <ele>1004.2122192383</ele>
        <time>2020-10-16T09:20:09.387Z</time>
      </trkpt>
      <trkpt lat="44.71377" lon="3.80445">
        <ele>1004.0931396484</ele>
        <time>2020-10-16T09:20:09.971Z</time>
      </trkpt>
      <trkpt lat="44.71342" lon="3.80445">
        <ele>1006.3184204102</ele>
        <time>2020-10-16T09:20:10.562Z</time>
      </trkpt>
      <trkpt lat="44.71335" lon="3.80434">
        <ele>1006.8323974609</ele>
        <time>2020-10-16T09:20:11.155Z</time>
      </trkpt>
      <trkpt lat="44.71321" lon="3.80421">
        <ele>1007.7494506836</ele>
        <time>2020-10-16T09:20:11.752Z</time>
      </trkpt>
      <trkpt lat="44.71308" lon="3.80406">
        <ele>1008.4179077148</ele>
        <time>2020-10-16T09:20:12.352Z</time>
      </trkpt>
      <trkpt lat="44.71301" lon="3.80394">
        <ele>1008.743347168</ele>
        <time>2020-10-16T09:20:12.954Z</time>
      </trkpt>
      <trkpt lat="44.71294" lon="3.80378">
        <ele>1008.9420776367</ele>
        <time>2020-10-16T09:20:13.559Z</time>
      </trkpt>
      <trkpt lat="44.71287" lon="3.80362">
        <ele>1009.1442260742</ele>
        <time>2020-10-16T09:20:14.166Z</time>
      </trkpt>
      <trkpt lat="44.71278" lon="3.80346">
        <ele>1009.7868652344</ele>
        <time>2020-10-16T09:20:14.776Z</time>
      </trkpt>
      <trkpt lat="44.71268" lon="3.80332">
        <ele>1010.840637207</ele>
        <time>2020-10-16T09:20:15.389Z</time>
      </trkpt>
      <trkpt lat="44.71261" lon="3.80323">
        <ele>1011.5199584961</ele>
        <time>2020-10-16T09:20:16.004Z</time>
      </trkpt>
      <trkpt lat="44.71261" lon="3.80311">
        <ele>1012.2492675781</ele>
        <time>2020-10-16T09:20:16.621Z</time>
      </trkpt>
      <trkpt lat="44.71261" lon="3.80295">
        <ele>1013.2099609375</ele>
        <time>2020-10-16T09:20:17.240Z</time>
      </trkpt>
      <trkpt lat="44.71258" lon="3.80285">
        <ele>1013.9146728516</ele>
        <time>2020-10-16T09:20:17.861Z</time>
      </trkpt>
      <trkpt lat="44.71251" lon="3.80267">
        <ele>1015.1331176758</ele>
        <time>2020-10-16T09:20:18.484Z</time>
      </trkpt>
      <trkpt lat="44.71244" lon="3.80258">
        <ele>1015.874206543</ele>
        <time>2020-10-16T09:20:19.109Z</time>
      </trkpt>
      <trkpt lat="44.71237" lon="3.80241">
        <ele>1017.0289916992</ele>
        <time>2020-10-16T09:20:19.737Z</time>
      </trkpt>
      <trkpt lat="44.71232" lon="3.80228">
        <ele>1017.9303588867</ele>
        <time>2020-10-16T09:20:20.367Z</time>
      </trkpt>
      <trkpt lat="44.71225" lon="3.80217">
        <ele>1018.7813720703</ele>
        <time>2020-10-16T09:20:20.999Z</time>
      </trkpt>
      <trkpt lat="44.71218" lon="3.80201">
        <ele>1019.8091430664</ele>
        <time>2020-10-16T09:20:21.634Z</time>
      </trkpt>
      <trkpt lat="44.71212" lon="3.80187">
        <ele>1020.6210327148</ele>
        <time>2020-10-16T09:20:22.271Z</time>
      </trkpt>
      <trkpt lat="44.7121" lon="3.80173">
        <ele>1021.9049682617</ele>
        <time>2020-10-16T09:20:22.910Z</time>
      </trkpt>
      <trkpt lat="44.71207" lon="3.8016">
        <ele>1023.2241210938</ele>
        <time>2020-10-16T09:20:23.551Z</time>
      </trkpt>
      <trkpt lat="44.71204" lon="3.80152">
        <ele>1024.0543212891</ele>
        <time>2020-10-16T09:20:24.194Z</time>
      </trkpt>
      <trkpt lat="44.71202" lon="3.80147">
        <ele>1024.4880371094</ele>
        <time>2020-10-16T09:20:24.837Z</time>
      </trkpt>
      <trkpt lat="44.71199" lon="3.80143">
        <ele>1024.9630126953</ele>
        <time>2020-10-16T09:20:25.481Z</time>
      </trkpt>
      <trkpt lat="44.71191" lon="3.80136">
        <ele>1025.708984375</ele>
        <time>2020-10-16T09:20:26.127Z</time>
      </trkpt>
      <trkpt lat="44.71186" lon="3.80125">
        <ele>1026.7338867188</ele>
        <time>2020-10-16T09:20:26.775Z</time>
      </trkpt>
      <trkpt lat="44.71185" lon="3.80115">
        <ele>1027.5947265625</ele>
        <time>2020-10-16T09:20:27.424Z</time>
      </trkpt>
      <trkpt lat="44.71183" lon="3.80105">
        <ele>1028.5100097656</ele>
        <time>2020-10-16T09:20:28.075Z</time>
      </trkpt>
      <trkpt lat="44.71178" lon="3.80092">
        <ele>1030.2176513672</ele>
        <time>2020-10-16T09:20:28.728Z</time>
      </trkpt>
      <trkpt lat="44.71174" lon="3.80078">
        <ele>1032.0086669922</ele>
        <time>2020-10-16T09:20:29.383Z</time>
      </trkpt>
      <trkpt lat="44.71167" lon="3.80067">
        <ele>1033.3751220703</ele>
        <time>2020-10-16T09:20:30.040Z</time>
      </trkpt>
      <trkpt lat="44.71159" lon="3.80056">
        <ele>1034.6942138672</ele>
        <time>2020-10-16T09:20:30.699Z</time>
      </trkpt>
      <trkpt lat="44.71152" lon="3.80046">
        <ele>1036.0028076172</ele>
        <time>2020-10-16T09:20:31.361Z</time>
      </trkpt>
      <trkpt lat="44.71145" lon="3.80038">
        <ele>1037.0197753906</ele>
        <time>2020-10-16T09:20:32.024Z</time>
      </trkpt>
      <trkpt lat="44.71127" lon="3.80023">
        <ele>1039.3864746094</ele>
        <time>2020-10-16T09:20:32.691Z</time>
      </trkpt>
      <trkpt lat="44.71113" lon="3.80017">
        <ele>1040.1557617188</ele>
        <time>2020-10-16T09:20:33.361Z</time>
      </trkpt>
      <trkpt lat="44.711" lon="3.80014">
        <ele>1039.8757324219</ele>
        <time>2020-10-16T09:20:34.034Z</time>
      </trkpt>
      <trkpt lat="44.71093" lon="3.80014">
        <ele>1039.4957275391</ele>
        <time>2020-10-16T09:20:34.708Z</time>
      </trkpt>
      <trkpt lat="44.71085" lon="3.80015">
        <ele>1039.0545654297</ele>
        <time>2020-10-16T09:20:35.384Z</time>
      </trkpt>
      <trkpt lat="44.71078" lon="3.80015">
        <ele>1038.7288818359</ele>
        <time>2020-10-16T09:20:36.062Z</time>
      </trkpt>
      <trkpt lat="44.71073" lon="3.80005">
        <ele>1039.4956054688</ele>
        <time>2020-10-16T09:20:36.741Z</time>
      </trkpt>
      <trkpt lat="44.7107" lon="3.79989">
        <ele>1041.16796875</ele>
        <time>2020-10-16T09:20:37.423Z</time>
      </trkpt>
      <trkpt lat="44.71067" lon="3.7997">
        <ele>1043.0726318359</ele>
        <time>2020-10-16T09:20:38.107Z</time>
      </trkpt>
      <trkpt lat="44.71063" lon="3.79957">
        <ele>1044.083984375</ele>
        <time>2020-10-16T09:20:38.793Z</time>
      </trkpt>
      <trkpt lat="44.71055" lon="3.79939">
        <ele>1045.4036865234</ele>
        <time>2020-10-16T09:20:39.482Z</time>
      </trkpt>
      <trkpt lat="44.71045" lon="3.79916">
        <ele>1047.3492431641</ele>
        <time>2020-10-16T09:20:40.175Z</time>
      </trkpt>
      <trkpt lat="44.71035" lon="3.79892">
        <ele>1049.6043701172</ele>
        <time>2020-10-16T09:20:40.872Z</time>
      </trkpt>
      <trkpt lat="44.71034" lon="3.79878">
        <ele>1051.1151123047</ele>
        <time>2020-10-16T09:20:41.571Z</time>
      </trkpt>
      <trkpt lat="44.71025" lon="3.79847">
        <ele>1054.8544921875</ele>
        <time>2020-10-16T09:20:42.275Z</time>
      </trkpt>
      <trkpt lat="44.71014" lon="3.79817">
        <ele>1058.4373779297</ele>
        <time>2020-10-16T09:20:42.984Z</time>
      </trkpt>
      <trkpt lat="44.71005" lon="3.79802">
        <ele>1060.5179443359</ele>
        <time>2020-10-16T09:20:43.696Z</time>
      </trkpt>
      <trkpt lat="44.70995" lon="3.79798">
        <ele>1061.7590332031</ele>
        <time>2020-10-16T09:20:44.410Z</time>
      </trkpt>
      <trkpt lat="44.70987" lon="3.79796">
        <ele>1062.7396240234</ele>
        <time>2020-10-16T09:20:45.125Z</time>
      </trkpt>
      <trkpt lat="44.70982" lon="3.7978">
        <ele>1064.6044921875</ele>
        <time>2020-10-16T09:20:45.843Z</time>
      </trkpt>
      <trkpt lat="44.70968" lon="3.79757">
        <ele>1067.6552734375</ele>
        <time>2020-10-16T09:20:46.565Z</time>
      </trkpt>
      <trkpt lat="44.70957" lon="3.7973">
        <ele>1070.7033691406</ele>
        <time>2020-10-16T09:20:47.292Z</time>
      </trkpt>
      <trkpt lat="44.70935" lon="3.79728">
        <ele>1073.8273925781</ele>
        <time>2020-10-16T09:20:48.023Z</time>
      </trkpt>
      <trkpt lat="44.70909" lon="3.79727">
        <ele>1077.6728515625</ele>
        <time>2020-10-16T09:20:48.759Z</time>
      </trkpt>
      <trkpt lat="44.70887" lon="3.79723">
        <ele>1081.0579833984</ele>
        <time>2020-10-16T09:20:49.500Z</time>
      </trkpt>
      <trkpt lat="44.70868" lon="3.79724">
        <ele>1083.7705078125</ele>
        <time>2020-10-16T09:20:50.244Z</time>
      </trkpt>
      <trkpt lat="44.70854" lon="3.79721">
        <ele>1086.3615722656</ele>
        <time>2020-10-16T09:20:50.991Z</time>
      </trkpt>
      <trkpt lat="44.7084" lon="3.79724">
        <ele>1088.4790039062</ele>
        <time>2020-10-16T09:20:51.741Z</time>
      </trkpt>
      <trkpt lat="44.70823" lon="3.79733">
        <ele>1090.4508056641</ele>
        <time>2020-10-16T09:20:52.495Z</time>
      </trkpt>
      <trkpt lat="44.70803" lon="3.79742">
        <ele>1092.0057373047</ele>
        <time>2020-10-16T09:20:53.253Z</time>
      </trkpt>
      <trkpt lat="44.70786" lon="3.79741">
        <ele>1094.2750244141</ele>
        <time>2020-10-16T09:20:54.014Z</time>
      </trkpt>
      <trkpt lat="44.7077" lon="3.79735">
        <ele>1094.9487304688</ele>
        <time>2020-10-16T09:20:54.779Z</time>
      </trkpt>
      <trkpt lat="44.70751" lon="3.79731">
        <ele>1095.3927001953</ele>
        <time>2020-10-16T09:20:55.548Z</time>
      </trkpt>
      <trkpt lat="44.70733" lon="3.79736">
        <ele>1095.0733642578</ele>
        <time>2020-10-16T09:20:56.320Z</time>
      </trkpt>
      <trkpt lat="44.7072" lon="3.79733">
        <ele>1095.5034179688</ele>
        <time>2020-10-16T09:20:57.095Z</time>
      </trkpt>
      <trkpt lat="44.7071" lon="3.79726">
        <ele>1096.26171875</ele>
        <time>2020-10-16T09:20:57.872Z</time>
      </trkpt>
      <trkpt lat="44.70701" lon="3.79721">
        <ele>1096.8967285156</ele>
        <time>2020-10-16T09:20:58.651Z</time>
      </trkpt>
      <trkpt lat="44.70701" lon="3.7971">
        <ele>1097.9611816406</ele>
        <time>2020-10-16T09:20:59.432Z</time>
      </trkpt>
      <trkpt lat="44.70698" lon="3.79696">
        <ele>1099.2956542969</ele>
        <time>2020-10-16T09:21:00.215Z</time>
      </trkpt>
      <trkpt lat="44.70693" lon="3.79677">
        <ele>1100.6668701172</ele>
        <time>2020-10-16T09:21:01.000Z</time>
      </trkpt>
      <trkpt lat="44.70689" lon="3.79657">
        <ele>1101.6553955078</ele>
        <time>2020-10-16T09:21:01.788Z</time>
      </trkpt>
      <trkpt lat="44.70688" lon="3.79645">
        <ele>1102.2708740234</ele>
        <time>2020-10-16T09:21:02.578Z</time>
      </trkpt>
      <trkpt lat="44.70688" lon="3.79634">
        <ele>1102.7760009766</ele>
        <time>2020-10-16T09:21:03.370Z</time>
      </trkpt>
      <trkpt lat="44.70682" lon="3.79623">
        <ele>1103.3905029297</ele>
        <time>2020-10-16T09:21:04.164Z</time>
      </trkpt>
      <trkpt lat="44.70679" lon="3.7962">
        <ele>1103.5561523438</ele>
        <time>2020-10-16T09:21:04.958Z</time>
      </trkpt>
      <trkpt lat="44.70672" lon="3.79612">
        <ele>1104.0466308594</ele>
        <time>2020-10-16T09:21:05.754Z</time>
      </trkpt>
      <trkpt lat="44.70668" lon="3.79598">
        <ele>1105.0346679688</ele>
        <time>2020-10-16T09:21:06.552Z</time>
      </trkpt>
      <trkpt lat="44.70662" lon="3.79586">
        <ele>1106.0863037109</ele>
        <time>2020-10-16T09:21:07.352Z</time>
      </trkpt>
      <trkpt lat="44.7065" lon="3.79565">
        <ele>1107.9822998047</ele>
        <time>2020-10-16T09:21:08.156Z</time>
      </trkpt>
      <trkpt lat="44.70637" lon="3.79548">
        <ele>1109.6198730469</ele>
        <time>2020-10-16T09:21:08.964Z</time>
      </trkpt>
      <trkpt lat="44.70627" lon="3.79538">
        <ele>1110.5690917969</ele>
        <time>2020-10-16T09:21:09.774Z</time>
      </trkpt>
      <trkpt lat="44.70603" lon="3.79518">
        <ele>1113.5281982422</ele>
        <time>2020-10-16T09:21:10.590Z</time>
      </trkpt>
      <trkpt lat="44.7058" lon="3.79504">
        <ele>1116.3636474609</ele>
        <time>2020-10-16T09:21:11.411Z</time>
      </trkpt>
      <trkpt lat="44.7057" lon="3.79488">
        <ele>1118.4407958984</ele>
        <time>2020-10-16T09:21:12.235Z</time>
      </trkpt>
      <trkpt lat="44.70548" lon="3.79473">
        <ele>1121.2757568359</ele>
        <time>2020-10-16T09:21:13.064Z</time>
      </trkpt>
      <trkpt lat="44.70534" lon="3.79455">
        <ele>1123.3395996094</ele>
        <time>2020-10-16T09:21:13.897Z</time>
      </trkpt>
      <trkpt lat="44.7052" lon="3.79445">
        <ele>1123.2673339844</ele>
        <time>2020-10-16T09:21:14.733Z</time>
      </trkpt>
      <trkpt lat="44.70506" lon="3.79424">
        <ele>1124.1534423828</ele>
        <time>2020-10-16T09:21:15.573Z</time>
      </trkpt>
      <trkpt lat="44.70495" lon="3.79403">
        <ele>1125.3605957031</ele>
        <time>2020-10-16T09:21:16.417Z</time>
      </trkpt>
      <trkpt lat="44.70479" lon="3.79387">
        <ele>1125.8225097656</ele>
        <time>2020-10-16T09:21:17.264Z</time>
      </trkpt>
      <trkpt lat="44.70463" lon="3.7936">
        <ele>1127.0520019531</ele>
        <time>2020-10-16T09:21:18.116Z</time>
      </trkpt>
      <trkpt lat="44.70449" lon="3.79331">
        <ele>1128.5006103516</ele>
        <time>2020-10-16T09:21:18.973Z</time>
      </trkpt>
      <trkpt lat="44.70445" lon="3.79317">
        <ele>1129.3859863281</ele>
        <time>2020-10-16T09:21:19.833Z</time>
      </trkpt>
      <trkpt lat="44.70433" lon="3.7929">
        <ele>1131.1623535156</ele>
        <time>2020-10-16T09:21:20.697Z</time>
      </trkpt>
      <trkpt lat="44.70419" lon="3.79262">
        <ele>1132.6584472656</ele>
        <time>2020-10-16T09:21:21.566Z</time>
      </trkpt>
      <trkpt lat="44.70416" lon="3.7925">
        <ele>1132.9786376953</ele>
        <time>2020-10-16T09:21:22.437Z</time>
      </trkpt>
      <trkpt lat="44.70409" lon="3.79238">
        <ele>1133.3295898438</ele>
        <time>2020-10-16T09:21:23.310Z</time>
      </trkpt>
      <trkpt lat="44.70402" lon="3.79226">
        <ele>1133.7058105469</ele>
        <time>2020-10-16T09:21:24.185Z</time>
      </trkpt>
      <trkpt lat="44.70393" lon="3.79213">
        <ele>1134.1423339844</ele>
        <time>2020-10-16T09:21:25.063Z</time>
      </trkpt>
      <trkpt lat="44.70384" lon="3.79205">
        <ele>1134.4232177734</ele>
        <time>2020-10-16T09:21:25.943Z</time>
      </trkpt>
      <trkpt lat="44.7035" lon="3.79187">
        <ele>1135.0744628906</ele>
        <time>2020-10-16T09:21:26.830Z</time>
      </trkpt>
      <trkpt lat="44.70321" lon="3.79172">
        <ele>1136.1860351562</ele>
        <time>2020-10-16T09:21:27.724Z</time>
      </trkpt>
      <trkpt lat="44.70301" lon="3.79157">
        <ele>1137.2514648438</ele>
        <time>2020-10-16T09:21:28.622Z</time>
      </trkpt>
      <trkpt lat="44.70293" lon="3.79147">
        <ele>1137.9744873047</ele>
        <time>2020-10-16T09:21:29.522Z</time>
      </trkpt>
      <trkpt lat="44.70285" lon="3.79136">
        <ele>1138.6909179688</ele>
        <time>2020-10-16T09:21:30.424Z</time>
      </trkpt>
      <trkpt lat="44.70266" lon="3.79128">
        <ele>1138.6135253906</ele>
        <time>2020-10-16T09:21:31.330Z</time>
      </trkpt>
      <trkpt lat="44.70251" lon="3.79116">
        <ele>1138.9196777344</ele>
        <time>2020-10-16T09:21:32.240Z</time>
      </trkpt>
      <trkpt lat="44.70204" lon="3.7909">
        <ele>1138.765625</ele>
        <time>2020-10-16T09:21:33.160Z</time>
      </trkpt>
      <trkpt lat="44.70183" lon="3.79072">
        <ele>1140.5699462891</ele>
        <time>2020-10-16T09:21:34.085Z</time>
      </trkpt>
      <trkpt lat="44.70174" lon="3.79059">
        <ele>1141.5795898438</ele>
        <time>2020-10-16T09:21:35.012Z</time>
      </trkpt>
      <trkpt lat="44.70166" lon="3.79046">
        <ele>1142.6212158203</ele>
        <time>2020-10-16T09:21:35.942Z</time>
      </trkpt>
      <trkpt lat="44.70156" lon="3.79028">
        <ele>1143.9702148438</ele>
        <time>2020-10-16T09:21:36.875Z</time>
      </trkpt>
      <trkpt lat="44.70148" lon="3.79013">
        <ele>1144.4395751953</ele>
        <time>2020-10-16T09:21:37.811Z</time>
      </trkpt>
      <trkpt lat="44.70147" lon="3.78995">
        <ele>1144.0541992188</ele>
        <time>2020-10-16T09:21:38.749Z</time>
      </trkpt>
      <trkpt lat="44.70161" lon="3.78983">
        <ele>1143.1164550781</ele>
        <time>2020-10-16T09:21:39.690Z</time>
      </trkpt>
      <trkpt lat="44.70135" lon="3.78969">
        <ele>1144.0142822266</ele>
        <time>2020-10-16T09:21:40.637Z</time>
      </trkpt>
      <trkpt lat="44.7012" lon="3.7895">
        <ele>1144.2711181641</ele>
        <time>2020-10-16T09:21:41.588Z</time>
      </trkpt>
      <trkpt lat="44.70106" lon="3.78933">
        <ele>1144.2553710938</ele>
        <time>2020-10-16T09:21:42.543Z</time>
      </trkpt>
      <trkpt lat="44.70085" lon="3.78894">
        <ele>1142.7329101562</ele>
        <time>2020-10-16T09:21:43.505Z</time>
      </trkpt>
      <trkpt lat="44.70075" lon="3.78877">
        <ele>1142.1275634766</ele>
        <time>2020-10-16T09:21:44.470Z</time>
      </trkpt>
      <trkpt lat="44.70066" lon="3.78861">
        <ele>1141.5690917969</ele>
        <time>2020-10-16T09:21:45.438Z</time>
      </trkpt>
      <trkpt lat="44.70056" lon="3.78843">
        <ele>1141.5405273438</ele>
        <time>2020-10-16T09:21:46.409Z</time>
      </trkpt>
      <trkpt lat="44.70031" lon="3.78804">
        <ele>1141.4401855469</ele>
        <time>2020-10-16T09:21:47.388Z</time>
      </trkpt>
      <trkpt lat="44.7" lon="3.78756">
        <ele>1138.4350585938</ele>
        <time>2020-10-16T09:21:48.376Z</time>
      </trkpt>
      <trkpt lat="44.69987" lon="3.78738">
        <ele>1137.2467041016</ele>
        <time>2020-10-16T09:21:49.367Z</time>
      </trkpt>
      <trkpt lat="44.69969" lon="3.78709">
        <ele>1135.5056152344</ele>
        <time>2020-10-16T09:21:50.364Z</time>
      </trkpt>
      <trkpt lat="44.69952" lon="3.78684">
        <ele>1133.6782226562</ele>
        <time>2020-10-16T09:21:51.366Z</time>
      </trkpt>
      <trkpt lat="44.69939" lon="3.7867">
        <ele>1132.1325683594</ele>
        <time>2020-10-16T09:21:52.371Z</time>
      </trkpt>
      <trkpt lat="44.69922" lon="3.78656">
        <ele>1130.5390625</ele>
        <time>2020-10-16T09:21:53.380Z</time>
      </trkpt>
      <trkpt lat="44.69909" lon="3.78643">
        <ele>1129.1818847656</ele>
        <time>2020-10-16T09:21:54.392Z</time>
      </trkpt>
      <trkpt lat="44.69897" lon="3.78628">
        <ele>1127.6524658203</ele>
        <time>2020-10-16T09:21:55.407Z</time>
      </trkpt>
      <trkpt lat="44.69888" lon="3.78614">
        <ele>1126.2855224609</ele>
        <time>2020-10-16T09:21:56.425Z</time>
      </trkpt>
      <trkpt lat="44.69878" lon="3.78595">
        <ele>1125.5186767578</ele>
        <time>2020-10-16T09:21:57.447Z</time>
      </trkpt>
      <trkpt lat="44.69867" lon="3.78579">
        <ele>1125.6441650391</ele>
        <time>2020-10-16T09:21:58.472Z</time>
      </trkpt>
      <trkpt lat="44.69861" lon="3.78567">
        <ele>1126.0134277344</ele>
        <time>2020-10-16T09:21:59.499Z</time>
      </trkpt>
      <trkpt lat="44.69855" lon="3.78552">
        <ele>1126.4461669922</ele>
        <time>2020-10-16T09:22:00.528Z</time>
      </trkpt>
      <trkpt lat="44.69851" lon="3.78539">
        <ele>1126.8170166016</ele>
        <time>2020-10-16T09:22:01.559Z</time>
      </trkpt>
      <trkpt lat="44.69846" lon="3.78527">
        <ele>1127.1607666016</ele>
        <time>2020-10-16T09:22:02.592Z</time>
      </trkpt>
      <trkpt lat="44.69842" lon="3.78518">
        <ele>1127.7644042969</ele>
        <time>2020-10-16T09:22:03.627Z</time>
      </trkpt>
      <trkpt lat="44.69835" lon="3.7851">
        <ele>1128.6356201172</ele>
        <time>2020-10-16T09:22:04.664Z</time>
      </trkpt>
      <trkpt lat="44.69828" lon="3.78505">
        <ele>1129.3201904297</ele>
        <time>2020-10-16T09:22:05.702Z</time>
      </trkpt>
      <trkpt lat="44.69822" lon="3.78498">
        <ele>1130.0736083984</ele>
        <time>2020-10-16T09:22:06.742Z</time>
      </trkpt>
      <trkpt lat="44.69817" lon="3.78492">
        <ele>1130.8665771484</ele>
        <time>2020-10-16T09:22:07.783Z</time>
      </trkpt>
      <trkpt lat="44.69814" lon="3.78483">
        <ele>1131.7879638672</ele>
        <time>2020-10-16T09:22:08.825Z</time>
      </trkpt>
      <trkpt lat="44.6981" lon="3.78472">
        <ele>1133.0354003906</ele>
        <time>2020-10-16T09:22:09.869Z</time>
      </trkpt>
      <trkpt lat="44.69807" lon="3.78456">
        <ele>1134.6911621094</ele>
        <time>2020-10-16T09:22:10.916Z</time>
      </trkpt>
      <trkpt lat="44.69803" lon="3.78445">
        <ele>1135.6911621094</ele>
        <time>2020-10-16T09:22:11.964Z</time>
      </trkpt>
      <trkpt lat="44.69798" lon="3.7843">
        <ele>1137.3909912109</ele>
        <time>2020-10-16T09:22:13.015Z</time>
      </trkpt>
      <trkpt lat="44.69795" lon="3.78416">
        <ele>1138.9938964844</ele>
        <time>2020-10-16T09:22:14.068Z</time>
      </trkpt>
      <trkpt lat="44.69791" lon="3.78402">
        <ele>1140.6687011719</ele>
        <time>2020-10-16T09:22:15.123Z</time>
      </trkpt>
      <trkpt lat="44.6979" lon="3.78387">
        <ele>1142.369140625</ele>
        <time>2020-10-16T09:22:16.180Z</time>
      </trkpt>
      <trkpt lat="44.6979" lon="3.78383">
        <ele>1142.8051757812</ele>
        <time>2020-10-16T09:22:17.238Z</time>
      </trkpt>
      <trkpt lat="44.6979" lon="3.7837">
        <ele>1144.1966552734</ele>
        <time>2020-10-16T09:22:18.298Z</time>
      </trkpt>
      <trkpt lat="44.69791" lon="3.78353">
        <ele>1145.8063964844</ele>
        <time>2020-10-16T09:22:19.360Z</time>
      </trkpt>
      <trkpt lat="44.69791" lon="3.78339">
        <ele>1146.8524169922</ele>
        <time>2020-10-16T09:22:20.424Z</time>
      </trkpt>
      <trkpt lat="44.69789" lon="3.78326">
        <ele>1147.9223632812</ele>
        <time>2020-10-16T09:22:21.490Z</time>
      </trkpt>
      <trkpt lat="44.69788" lon="3.78315">
        <ele>1148.7416992188</ele>
        <time>2020-10-16T09:22:22.557Z</time>
      </trkpt>
      <trkpt lat="44.69789" lon="3.78308">
        <ele>1149.2242431641</ele>
        <time>2020-10-16T09:22:23.625Z</time>
      </trkpt>
      <trkpt lat="44.69789" lon="3.78295">
        <ele>1150.0867919922</ele>
        <time>2020-10-16T09:22:24.695Z</time>
      </trkpt>
      <trkpt lat="44.69789" lon="3.78277">
        <ele>1151.4757080078</ele>
        <time>2020-10-16T09:22:25.768Z</time>
      </trkpt>
      <trkpt lat="44.69787" lon="3.78257">
        <ele>1152.8493652344</ele>
        <time>2020-10-16T09:22:26.844Z</time>
      </trkpt>
      <trkpt lat="44.69789" lon="3.7824">
        <ele>1153.8200683594</ele>
        <time>2020-10-16T09:22:27.922Z</time>
      </trkpt>
      <trkpt lat="44.69791" lon="3.78221">
        <ele>1154.8758544922</ele>
        <time>2020-10-16T09:22:29.003Z</time>
      </trkpt>
      <trkpt lat="44.69789" lon="3.78204">
        <ele>1155.9415283203</ele>
        <time>2020-10-16T09:22:30.086Z</time>
      </trkpt>
      <trkpt lat="44.69783" lon="3.78186">
        <ele>1156.9666748047</ele>
        <time>2020-10-16T09:22:31.172Z</time>
      </trkpt>
      <trkpt lat="44.69771" lon="3.78163">
        <ele>1157.306640625</ele>
        <time>2020-10-16T09:22:32.262Z</time>
      </trkpt>
      <trkpt lat="44.69762" lon="3.78151">
        <ele>1157.4436035156</ele>
        <time>2020-10-16T09:22:33.355Z</time>
      </trkpt>
      <trkpt lat="44.69753" lon="3.7814">
        <ele>1157.5739746094</ele>
        <time>2020-10-16T09:22:34.450Z</time>
      </trkpt>
      <trkpt lat="44.69745" lon="3.78125">
        <ele>1157.7517089844</ele>
        <time>2020-10-16T09:22:35.548Z</time>
      </trkpt>
      <trkpt lat="44.69738" lon="3.78113">
        <ele>1157.9051513672</ele>
        <time>2020-10-16T09:22:36.648Z</time>
      </trkpt>
      <trkpt lat="44.69734" lon="3.78095">
        <ele>1158.1181640625</ele>
        <time>2020-10-16T09:22:37.751Z</time>
      </trkpt>
      <trkpt lat="44.69729" lon="3.78077">
        <ele>1158.3353271484</ele>
        <time>2020-10-16T09:22:38.857Z</time>
      </trkpt>
      <trkpt lat="44.69724" lon="3.78059">
        <ele>1158.5522460938</ele>
        <time>2020-10-16T09:22:39.965Z</time>
      </trkpt>
      <trkpt lat="44.69734" lon="3.78058">
        <ele>1158.5556640625</ele>
        <time>2020-10-16T09:22:41.075Z</time>
      </trkpt>
      <trkpt lat="44.69769" lon="3.78058">
        <ele>1157.8634033203</ele>
        <time>2020-10-16T09:22:42.192Z</time>
      </trkpt>
      <trkpt lat="44.69798" lon="3.78059">
        <ele>1157.4465332031</ele>
        <time>2020-10-16T09:22:43.315Z</time>
      </trkpt>
      <trkpt lat="44.6982" lon="3.78057">
        <ele>1157.4331054688</ele>
        <time>2020-10-16T09:22:44.443Z</time>
      </trkpt>
      <trkpt lat="44.69853" lon="3.78056">
        <ele>1158.1730957031</ele>
        <time>2020-10-16T09:22:45.577Z</time>
      </trkpt>
      <trkpt lat="44.69876" lon="3.78055">
        <ele>1158.1003417969</ele>
        <time>2020-10-16T09:22:46.716Z</time>
      </trkpt>
      <trkpt lat="44.69897" lon="3.78056">
        <ele>1156.3182373047</ele>
        <time>2020-10-16T09:22:47.859Z</time>
      </trkpt>
      <trkpt lat="44.69947" lon="3.78062">
        <ele>1153.3549804688</ele>
        <time>2020-10-16T09:22:49.012Z</time>
      </trkpt>
      <trkpt lat="44.69958" lon="3.78064">
        <ele>1152.9453125</ele>
        <time>2020-10-16T09:22:50.167Z</time>
      </trkpt>
      <trkpt lat="44.69964" lon="3.78067">
        <ele>1152.787109375</ele>
        <time>2020-10-16T09:22:51.324Z</time>
      </trkpt>
      <trkpt lat="44.69971" lon="3.78075">
        <ele>1152.4487304688</ele>
        <time>2020-10-16T09:22:52.482Z</time>
      </trkpt>
      <trkpt lat="44.69974" lon="3.7807">
        <ele>1152.6625976562</ele>
        <time>2020-10-16T09:22:53.641Z</time>
      </trkpt>
      <trkpt lat="44.69982" lon="3.78062">
        <ele>1153.0419921875</ele>
        <time>2020-10-16T09:22:54.802Z</time>
      </trkpt>
      <trkpt lat="44.69984" lon="3.78044">
        <ele>1153.9154052734</ele>
        <time>2020-10-16T09:22:55.966Z</time>
      </trkpt>
      <trkpt lat="44.69989" lon="3.78017">
        <ele>1155.1435546875</ele>
        <time>2020-10-16T09:22:57.134Z</time>
      </trkpt>
      <trkpt lat="44.69993" lon="3.77996">
        <ele>1155.8989257812</ele>
        <time>2020-10-16T09:22:58.305Z</time>
      </trkpt>
      <trkpt lat="44.69997" lon="3.77988">
        <ele>1156.1997070312</ele>
        <time>2020-10-16T09:22:59.477Z</time>
      </trkpt>
      <trkpt lat="44.70015" lon="3.77967">
        <ele>1156.9410400391</ele>
        <time>2020-10-16T09:23:00.654Z</time>
      </trkpt>
      <trkpt lat="44.7003" lon="3.77943">
        <ele>1157.8355712891</ele>
        <time>2020-10-16T09:23:01.835Z</time>
      </trkpt>
      <trkpt lat="44.70061" lon="3.77903">
        <ele>1156.4099121094</ele>
        <time>2020-10-16T09:23:03.025Z</time>
      </trkpt>
      <trkpt lat="44.70071" lon="3.77889">
        <ele>1155.7375488281</ele>
        <time>2020-10-16T09:23:04.218Z</time>
      </trkpt>
      <trkpt lat="44.70081" lon="3.77881">
        <ele>1154.9571533203</ele>
        <time>2020-10-16T09:23:05.413Z</time>
      </trkpt>
      <trkpt lat="44.70092" lon="3.77875">
        <ele>1154.1856689453</ele>
        <time>2020-10-16T09:23:06.610Z</time>
      </trkpt>
      <trkpt lat="44.70105" lon="3.77876">
        <ele>1153.4498291016</ele>
        <time>2020-10-16T09:23:07.810Z</time>
      </trkpt>
      <trkpt lat="44.7013" lon="3.77877">
        <ele>1152.5454101562</ele>
        <time>2020-10-16T09:23:09.015Z</time>
      </trkpt>
      <trkpt lat="44.70144" lon="3.77876">
        <ele>1152.3828125</ele>
        <time>2020-10-16T09:23:10.223Z</time>
      </trkpt>
      <trkpt lat="44.70158" lon="3.77871">
        <ele>1151.6206054688</ele>
        <time>2020-10-16T09:23:11.434Z</time>
      </trkpt>
      <trkpt lat="44.70175" lon="3.77861">
        <ele>1150.3918457031</ele>
        <time>2020-10-16T09:23:12.648Z</time>
      </trkpt>
      <trkpt lat="44.70244" lon="3.77819">
        <ele>1148.88671875</ele>
        <time>2020-10-16T09:23:13.877Z</time>
      </trkpt>
      <trkpt lat="44.70256" lon="3.77815">
        <ele>1149.5323486328</ele>
        <time>2020-10-16T09:23:15.109Z</time>
      </trkpt>
      <trkpt lat="44.70265" lon="3.7781">
        <ele>1150.0362548828</ele>
        <time>2020-10-16T09:23:16.343Z</time>
      </trkpt>
      <trkpt lat="44.70283" lon="3.77791">
        <ele>1150.6029052734</ele>
        <time>2020-10-16T09:23:17.581Z</time>
      </trkpt>
      <trkpt lat="44.703" lon="3.7777">
        <ele>1149.6907958984</ele>
        <time>2020-10-16T09:23:18.824Z</time>
      </trkpt>
      <trkpt lat="44.70319" lon="3.77751">
        <ele>1147.8842773438</ele>
        <time>2020-10-16T09:23:20.071Z</time>
      </trkpt>
      <trkpt lat="44.70342" lon="3.77726">
        <ele>1146.3489990234</ele>
        <time>2020-10-16T09:23:21.324Z</time>
      </trkpt>
      <trkpt lat="44.70357" lon="3.7771">
        <ele>1146.3184814453</ele>
        <time>2020-10-16T09:23:22.581Z</time>
      </trkpt>
      <trkpt lat="44.70368" lon="3.77692">
        <ele>1146.0949707031</ele>
        <time>2020-10-16T09:23:23.841Z</time>
      </trkpt>
      <trkpt lat="44.70384" lon="3.77667">
        <ele>1144.6253662109</ele>
        <time>2020-10-16T09:23:25.106Z</time>
      </trkpt>
      <trkpt lat="44.70398" lon="3.77651">
        <ele>1143.669921875</ele>
        <time>2020-10-16T09:23:26.375Z</time>
      </trkpt>
      <trkpt lat="44.70409" lon="3.77637">
        <ele>1143.3428955078</ele>
        <time>2020-10-16T09:23:27.647Z</time>
      </trkpt>
      <trkpt lat="44.70426" lon="3.77611">
        <ele>1145.3022460938</ele>
        <time>2020-10-16T09:23:28.924Z</time>
      </trkpt>
      <trkpt lat="44.70445" lon="3.77588">
        <ele>1146.2987060547</ele>
        <time>2020-10-16T09:23:30.206Z</time>
      </trkpt>
      <trkpt lat="44.7046" lon="3.77569">
        <ele>1146.5062255859</ele>
        <time>2020-10-16T09:23:31.492Z</time>
      </trkpt>
      <trkpt lat="44.7048" lon="3.77555">
        <ele>1145.2359619141</ele>
        <time>2020-10-16T09:23:32.782Z</time>
      </trkpt>
      <trkpt lat="44.705" lon="3.7754">
        <ele>1146.3350830078</ele>
        <time>2020-10-16T09:23:34.077Z</time>
      </trkpt>
      <trkpt lat="44.70517" lon="3.77528">
        <ele>1147.7114257812</ele>
        <time>2020-10-16T09:23:35.376Z</time>
      </trkpt>
      <trkpt lat="44.70528" lon="3.77517">
        <ele>1148.3090820312</ele>
        <time>2020-10-16T09:23:36.677Z</time>
      </trkpt>
      <trkpt lat="44.70548" lon="3.77491">
        <ele>1148.1779785156</ele>
        <time>2020-10-16T09:23:37.984Z</time>
      </trkpt>
      <trkpt lat="44.70565" lon="3.77473">
        <ele>1147.9396972656</ele>
        <time>2020-10-16T09:23:39.295Z</time>
      </trkpt>
      <trkpt lat="44.70565" lon="3.77473">
        <ele>1147.9393310547</ele>
        <time>2020-10-16T09:23:40.606Z</time>
      </trkpt>
      <trkpt lat="44.70565" lon="3.77473">
        <ele>1147.9276123047</ele>
        <time>2020-10-16T09:23:41.917Z</time>
      </trkpt>
      <trkpt lat="44.70606" lon="3.77422">
        <ele>1145.3037109375</ele>
        <time>2020-10-16T09:23:43.239Z</time>
      </trkpt>
      <trkpt lat="44.70677" lon="3.77385">
        <ele>1142.9331054688</ele>
        <time>2020-10-16T09:23:44.576Z</time>
      </trkpt>
      <trkpt lat="44.70737" lon="3.77375">
        <ele>1141.8375244141</ele>
        <time>2020-10-16T09:23:45.925Z</time>
      </trkpt>
      <trkpt lat="44.70738" lon="3.77378">
        <ele>1142.0847167969</ele>
        <time>2020-10-16T09:23:47.275Z</time>
      </trkpt>
      <trkpt lat="44.70779" lon="3.77447">
        <ele>1146.9691162109</ele>
        <time>2020-10-16T09:23:48.638Z</time>
      </trkpt>
      <trkpt lat="44.7082" lon="3.7748">
        <ele>1143.240234375</ele>
        <time>2020-10-16T09:23:50.010Z</time>
      </trkpt>
      <trkpt lat="44.70849" lon="3.77528">
        <ele>1139.1328125</ele>
        <time>2020-10-16T09:23:51.391Z</time>
      </trkpt>
      <trkpt lat="44.70874" lon="3.77586">
        <ele>1131.2103271484</ele>
        <time>2020-10-16T09:23:52.782Z</time>
      </trkpt>
      <trkpt lat="44.70889" lon="3.77611">
        <ele>1126.3098144531</ele>
        <time>2020-10-16T09:23:54.177Z</time>
      </trkpt>
      <trkpt lat="44.70913" lon="3.77639">
        <ele>1119.1590576172</ele>
        <time>2020-10-16T09:23:55.579Z</time>
      </trkpt>
      <trkpt lat="44.70941" lon="3.77645">
        <ele>1114.1071777344</ele>
        <time>2020-10-16T09:23:56.986Z</time>
      </trkpt>
      <trkpt lat="44.70987" lon="3.77613">
        <ele>1110.4246826172</ele>
        <time>2020-10-16T09:23:58.404Z</time>
      </trkpt>
      <trkpt lat="44.70987" lon="3.77613">
        <ele>1110.4250488281</ele>
        <time>2020-10-16T09:23:59.822Z</time>
      </trkpt>
      <trkpt lat="44.70987" lon="3.77615">
        <ele>1110.3275146484</ele>
        <time>2020-10-16T09:24:01.240Z</time>
      </trkpt>
      <trkpt lat="44.71024" lon="3.77608">
        <ele>1104.2000732422</ele>
        <time>2020-10-16T09:24:02.665Z</time>
      </trkpt>
      <trkpt lat="44.71028" lon="3.77605">
        <ele>1103.6706542969</ele>
        <time>2020-10-16T09:24:04.091Z</time>
      </trkpt>
      <trkpt lat="44.71028" lon="3.77605">
        <ele>1103.6715087891</ele>
        <time>2020-10-16T09:24:05.517Z</time>
      </trkpt>
      <trkpt lat="44.71046" lon="3.7759">
        <ele>1101.8337402344</ele>
        <time>2020-10-16T09:24:06.947Z</time>
      </trkpt>
      <trkpt lat="44.71046" lon="3.7759">
        <ele>1101.8345947266</ele>
        <time>2020-10-16T09:24:08.377Z</time>
      </trkpt>
      <trkpt lat="44.71046" lon="3.7759">
        <ele>1101.8337402344</ele>
        <time>2020-10-16T09:24:09.807Z</time>
      </trkpt>
      <trkpt lat="44.71049" lon="3.7759">
        <ele>1101.5587158203</ele>
        <time>2020-10-16T09:24:11.238Z</time>
      </trkpt>
      <trkpt lat="44.71098" lon="3.7759">
        <ele>1096.8916015625</ele>
        <time>2020-10-16T09:24:12.679Z</time>
      </trkpt>
      <trkpt lat="44.71155" lon="3.77571">
        <ele>1095.9476318359</ele>
        <time>2020-10-16T09:24:14.131Z</time>
      </trkpt>
      <trkpt lat="44.71167" lon="3.77575">
        <ele>1094.9821777344</ele>
        <time>2020-10-16T09:24:15.586Z</time>
      </trkpt>
      <trkpt lat="44.71193" lon="3.77601">
        <ele>1090.8502197266</ele>
        <time>2020-10-16T09:24:17.047Z</time>
      </trkpt>
      <trkpt lat="44.71211" lon="3.77653">
        <ele>1089.2344970703</ele>
        <time>2020-10-16T09:24:18.516Z</time>
      </trkpt>
      <trkpt lat="44.71214" lon="3.7766">
        <ele>1089.0928955078</ele>
        <time>2020-10-16T09:24:19.987Z</time>
      </trkpt>
      <trkpt lat="44.71231" lon="3.77754">
        <ele>1088.5355224609</ele>
        <time>2020-10-16T09:24:21.471Z</time>
      </trkpt>
      <trkpt lat="44.71312" lon="3.77894">
        <ele>1096.7542724609</ele>
        <time>2020-10-16T09:24:22.981Z</time>
      </trkpt>
      <trkpt lat="44.71368" lon="3.77998">
        <ele>1108.6768798828</ele>
        <time>2020-10-16T09:24:24.510Z</time>
      </trkpt>
      <trkpt lat="44.71388" lon="3.78046">
        <ele>1111.7406005859</ele>
        <time>2020-10-16T09:24:26.047Z</time>
      </trkpt>
      <trkpt lat="44.71388" lon="3.78046">
        <ele>1111.7401123047</ele>
        <time>2020-10-16T09:24:27.584Z</time>
      </trkpt>
      <trkpt lat="44.714" lon="3.78086">
        <ele>1113.7744140625</ele>
        <time>2020-10-16T09:24:29.127Z</time>
      </trkpt>
      <trkpt lat="44.71404" lon="3.78167">
        <ele>1113.4853515625</ele>
        <time>2020-10-16T09:24:30.681Z</time>
      </trkpt>
      <trkpt lat="44.71388" lon="3.78193">
        <ele>1112.4888916016</ele>
        <time>2020-10-16T09:24:32.240Z</time>
      </trkpt>
      <trkpt lat="44.7139" lon="3.78205">
        <ele>1112.1059570312</ele>
        <time>2020-10-16T09:24:33.801Z</time>
      </trkpt>
    </trkseg>
  </trk>
</gpx>